Time;durP1;ratioP1;P1;durP2;ratioP2;P2;SDS_P1;SDS_P2;PMS_P1;PMS_P2;Temp;Humidity;BMP_temperature;BMP_pressure;BME280_temperature;BME280_humidity;BME280_pressure;Samples;Min_cycle;Max_cycle;Signal;HPM_P1;HPM_P2
2021/04/27 00:00:18;;;;;;;9.50;7.20;;;8.50;69.30;;;;;;5056550;28;20515;-70
2021/04/27 00:02:44;;;;;;;8.47;6.43;;;8.50;69.30;;;;;;5057638;28;20542;-70
2021/04/27 00:05:14;;;;;;;8.40;6.60;;;8.50;69.30;;;;;;5056720;28;20564;-70
2021/04/27 00:07:40;;;;;;;10.37;7.10;;;8.40;69.20;;;;;;5056420;28;20463;-70
2021/04/27 00:10:08;;;;;;;7.67;6.20;;;8.40;69.20;;;;;;5056187;28;20436;-70
2021/04/27 00:12:34;;;;;;;8.83;7.00;;;8.40;69.40;;;;;;5057279;28;20443;-70
2021/04/27 00:14:59;;;;;;;9.17;7.00;;;8.40;69.30;;;;;;5056089;28;20448;-70
2021/04/27 00:17:25;;;;;;;10.27;7.17;;;8.40;69.50;;;;;;5055784;28;20513;-70
2021/04/27 00:19:50;;;;;;;10.33;7.60;;;8.40;69.80;;;;;;5056265;28;20192;-70
2021/04/27 00:22:16;;;;;;;8.23;6.33;;;8.40;70.00;;;;;;5056479;28;20177;-69
2021/04/27 00:24:42;;;;;;;7.80;6.73;;;8.40;69.80;;;;;;5056855;28;20248;-70
2021/04/27 00:27:07;;;;;;;10.70;7.17;;;8.40;70.10;;;;;;5055716;28;20170;-70
2021/04/27 00:29:33;;;;;;;7.37;6.30;;;8.40;70.10;;;;;;5055719;28;20203;-71
2021/04/27 00:31:58;;;;;;;7.43;6.53;;;8.40;70.20;;;;;;5055893;28;20182;-70
2021/04/27 00:34:24;;;;;;;8.87;6.47;;;8.40;70.20;;;;;;5056717;28;20300;-70
2021/04/27 00:36:50;;;;;;;7.87;7.03;;;8.30;69.60;;;;;;5055658;28;20510;-70
2021/04/27 00:39:15;;;;;;;8.23;6.10;;;8.30;70.10;;;;;;5055541;28;20217;-70
2021/04/27 00:41:41;;;;;;;8.30;6.43;;;8.30;70.30;;;;;;5055682;28;20193;-70
2021/04/27 00:44:07;;;;;;;7.63;6.83;;;8.30;70.30;;;;;;5056609;28;20642;-70
2021/04/27 00:46:33;;;;;;;9.10;7.80;;;8.30;70.30;;;;;;5056520;28;20411;-70
2021/04/27 00:48:58;;;;;;;11.20;7.10;;;8.20;69.90;;;;;;5058052;28;20878;-70
2021/04/27 00:51:24;;;;;;;8.10;6.50;;;8.20;69.90;;;;;;5056942;28;20194;-70
2021/04/27 00:53:50;;;;;;;9.27;6.20;;;8.10;70.40;;;;;;5055929;28;20194;-70
2021/04/27 00:56:17;;;;;;;8.90;6.67;;;8.20;70.90;;;;;;5056169;28;20183;-70
2021/04/27 00:58:42;;;;;;;7.70;6.90;;;8.10;71.00;;;;;;5054995;28;20425;-70
2021/04/27 01:01:11;;;;;;;10.33;6.50;;;8.10;71.30;;;;;;5055640;28;20411;-70
2021/04/27 01:03:37;;;;;;;8.90;7.47;;;8.00;71.70;;;;;;5055328;28;20546;-70
2021/04/27 01:06:03;;;;;;;10.30;7.10;;;8.00;71.70;;;;;;5056181;28;20478;-70
2021/04/27 01:08:53;;;;;;;10.20;7.57;;;8.00;71.70;;;;;;5054718;28;20445;-70
2021/04/27 01:11:48;;;;;;;6.80;6.20;;;7.90;70.90;;;;;;5055089;28;20417;-70
2021/04/27 01:14:25;;;;;;;7.53;6.40;;;7.90;71.00;;;;;;5054740;28;20528;-70
2021/04/27 01:16:57;;;;;;;5.77;5.27;;;7.90;72.10;;;;;;5056155;28;20515;-70
2021/04/27 01:19:45;;;;;;;7.43;6.47;;;7.80;72.70;;;;;;5054777;28;20440;-69
2021/04/27 01:22:17;;;;;;;8.37;6.90;;;7.80;72.70;;;;;;5054997;28;20398;-72
2021/04/27 01:24:47;;;;;;;7.50;6.80;;;7.60;72.50;;;;;;5055065;28;20780;-70
2021/04/27 01:27:13;;;;;;;7.63;6.37;;;7.40;73.00;;;;;;5055618;28;20843;-70
2021/04/27 01:29:39;;;;;;;7.37;6.60;;;7.30;73.90;;;;;;5052999;28;20468;-71
2021/04/27 01:32:06;;;;;;;9.90;7.00;;;7.30;74.30;;;;;;5054527;28;20761;-69
2021/04/27 01:34:38;;;;;;;9.23;6.60;;;7.30;74.10;;;;;;5074301;28;20470;-71
2021/04/27 01:37:05;;;;;;;8.93;6.43;;;7.30;73.90;;;;;;5074671;28;20408;-69
2021/04/27 01:39:32;;;;;;;6.87;5.50;;;7.30;74.20;;;;;;5074347;28;20531;-70
2021/04/27 01:42:00;;;;;;;6.77;5.53;;;7.30;73.40;;;;;;5074501;28;20407;-70
2021/04/27 01:44:28;;;;;;;6.53;5.83;;;7.20;73.20;;;;;;5072305;28;20522;-70
2021/04/27 01:46:54;;;;;;;9.03;6.83;;;7.20;73.30;;;;;;5074427;28;20408;-70
2021/04/27 01:49:20;;;;;;;8.60;6.57;;;7.20;73.00;;;;;;5073931;28;20447;-70
2021/04/27 01:51:46;;;;;;;5.83;5.23;;;7.20;73.70;;;;;;5074604;28;20400;-71
2021/04/27 01:54:13;;;;;;;6.40;5.50;;;7.10;72.60;;;;;;5072488;28;20823;-70
2021/04/27 01:56:38;;;;;;;6.90;5.23;;;7.10;72.60;;;;;;5073824;28;20404;-70
2021/04/27 01:59:05;;;;;;;5.90;5.20;;;7.00;71.70;;;;;;5073575;28;20935;-70
2021/04/27 02:01:31;;;;;;;5.20;4.67;;;7.00;71.50;;;;;;5074206;28;20173;-70
2021/04/27 02:03:57;;;;;;;6.37;5.77;;;7.00;71.40;;;;;;5073795;28;20440;-70
2021/04/27 02:06:23;;;;;;;5.40;4.90;;;7.00;71.20;;;;;;5075369;28;20412;-70
2021/04/27 02:08:57;;;;;;;5.30;4.80;;;6.90;70.40;;;;;;5074898;28;20589;-70
2021/04/27 02:11:23;;;;;;;6.23;5.30;;;6.80;70.30;;;;;;5073611;28;20184;-70
2021/04/27 02:13:49;;;;;;;9.80;4.83;;;6.70;71.20;;;;;;5073016;28;20820;-70
2021/04/27 02:16:15;;;;;;;6.13;5.30;;;6.70;71.90;;;;;;5074921;28;20410;-70
2021/04/27 02:18:49;;;;;;;4.73;4.30;;;6.70;71.80;;;;;;5074217;28;20193;-70
2021/04/27 02:21:16;;;;;;;5.50;4.63;;;6.70;71.70;;;;;;5074882;28;20637;-70
2021/04/27 02:23:42;;;;;;;5.40;4.63;;;6.70;72.30;;;;;;5072186;28;20428;-70
2021/04/27 02:26:09;;;;;;;9.23;5.07;;;6.60;71.80;;;;;;5074871;28;20392;-70
2021/04/27 02:28:35;;;;;;;4.97;4.20;;;6.70;71.70;;;;;;5072562;28;20428;-70
2021/04/27 02:31:01;;;;;;;7.03;5.20;;;6.70;71.40;;;;;;5074376;28;20485;-70
2021/04/27 02:33:27;;;;;;;13.20;4.77;;;6.80;71.90;;;;;;5074423;28;20472;-70
2021/04/27 02:35:53;;;;;;;6.70;4.40;;;6.80;70.90;;;;;;5072699;28;20436;-70
2021/04/27 02:38:23;;;;;;;5.80;4.33;;;6.80;70.60;;;;;;5073622;28;20931;-70
2021/04/27 02:40:53;;;;;;;4.63;4.23;;;6.90;70.30;;;;;;5073504;28;20543;-70
2021/04/27 02:43:19;;;;;;;4.50;3.80;;;6.90;70.00;;;;;;5073703;28;20448;-70
2021/04/27 02:45:45;;;;;;;5.17;4.67;;;6.90;69.70;;;;;;5072158;28;20966;-71
2021/04/27 02:48:15;;;;;;;4.40;4.00;;;6.80;69.50;;;;;;5072489;28;20466;-70
2021/04/27 02:50:44;;;;;;;4.93;3.80;;;6.70;69.70;;;;;;5073461;28;20506;-70
2021/04/27 02:53:14;;;;;;;8.83;4.47;;;6.70;70.00;;;;;;5073225;28;20912;-70
2021/04/27 02:55:40;;;;;;;4.77;3.53;;;6.70;69.90;;;;;;5071992;28;20431;-70
2021/04/27 02:58:06;;;;;;;5.70;3.80;;;6.80;70.00;;;;;;5073704;28;20415;-70
2021/04/27 03:00:32;;;;;;;5.00;4.20;;;6.80;69.90;;;;;;5073738;28;20432;-70
2021/04/27 03:02:57;;;;;;;8.57;4.13;;;6.80;69.60;;;;;;5073117;28;20165;-70
2021/04/27 03:05:24;;;;;;;6.70;4.00;;;6.80;69.50;;;;;;5073690;28;20173;-70
2021/04/27 03:07:49;;;;;;;4.67;4.30;;;6.90;69.50;;;;;;5060018;28;20684;-70
2021/04/27 03:10:15;;;;;;;7.63;4.20;;;6.90;69.50;;;;;;5052620;28;20472;-70
2021/04/27 03:12:41;;;;;;;4.63;4.20;;;6.90;69.10;;;;;;5053387;28;20545;-70
2021/04/27 03:15:08;;;;;;;5.70;3.67;;;6.90;69.00;;;;;;5053307;28;20452;-70
2021/04/27 03:17:34;;;;;;;4.50;3.93;;;6.90;69.10;;;;;;5054015;28;20228;-70
2021/04/27 03:19:59;;;;;;;4.60;3.77;;;6.90;69.10;;;;;;5053078;28;20433;-70
2021/04/27 03:22:25;;;;;;;4.43;3.90;;;7.00;69.10;;;;;;5053191;28;20180;-70
2021/04/27 03:24:51;;;;;;;8.03;4.00;;;7.00;69.10;;;;;;5053628;28;20174;-70
2021/04/27 03:27:16;;;;;;;4.83;4.43;;;6.90;68.90;;;;;;5053936;28;20208;-70
2021/04/27 03:29:42;;;;;;;4.83;4.10;;;6.90;68.50;;;;;;5053418;28;20209;-70
2021/04/27 03:32:08;;;;;;;5.10;4.00;;;7.00;68.70;;;;;;5054116;28;20166;-70
2021/04/27 03:34:33;;;;;;;5.30;3.77;;;7.00;67.80;;;;;;5055684;28;20201;-70
2021/04/27 03:36:59;;;;;;;3.80;3.50;;;6.80;67.20;;;;;;5056321;28;20648;-70
2021/04/27 03:39:24;;;;;;;3.90;3.60;;;6.80;67.10;;;;;;5054908;28;20679;-70
2021/04/27 03:41:50;;;;;;;5.03;4.00;;;6.80;67.00;;;;;;5053246;28;20972;-70
2021/04/27 03:44:16;;;;;;;4.37;4.00;;;6.70;67.10;;;;;;5053488;28;20251;-70
2021/04/27 03:46:42;;;;;;;5.00;3.73;;;6.70;67.40;;;;;;5052806;28;20224;-69
2021/04/27 03:49:08;;;;;;;3.80;3.40;;;6.70;67.80;;;;;;5053627;28;20261;-70
2021/04/27 03:51:33;;;;;;;3.60;3.20;;;6.70;68.70;;;;;;5052983;28;20420;-71
2021/04/27 03:53:59;;;;;;;5.03;4.37;;;6.70;69.20;;;;;;5053034;28;20625;-70
2021/04/27 03:56:24;;;;;;;4.43;4.03;;;6.70;69.70;;;;;;5052925;28;20170;-70
2021/04/27 03:58:50;;;;;;;6.03;5.43;;;6.70;69.40;;;;;;5052712;28;20549;-70
2021/04/27 04:01:15;;;;;;;5.93;4.20;;;6.70;69.60;;;;;;5054157;28;20181;-70
2021/04/27 04:03:41;;;;;;;4.73;4.00;;;6.70;70.10;;;;;;5052787;28;20586;-69
2021/04/27 04:06:07;;;;;;;11.17;5.03;;;6.80;70.30;;;;;;5053481;28;20170;-69
2021/04/27 04:08:34;;;;;;;4.93;4.10;;;6.80;70.60;;;;;;5052341;28;20428;-69
2021/04/27 04:11:00;;;;;;;8.57;4.03;;;6.70;70.90;;;;;;5054183;28;20224;-71
2021/04/27 04:13:25;;;;;;;16.63;5.60;;;6.70;71.00;;;;;;5052743;28;20808;-69
2021/04/27 04:15:51;;;;;;;10.10;4.63;;;6.70;71.00;;;;;;5053359;28;20249;-69
2021/04/27 04:18:17;;;;;;;7.27;4.40;;;6.70;71.00;;;;;;5052561;28;20533;-70
2021/04/27 04:20:43;;;;;;;6.40;5.20;;;6.70;71.20;;;;;;5056601;28;20170;-70
2021/04/27 04:23:08;;;;;;;5.00;4.50;;;6.70;71.20;;;;;;5056217;28;20654;-70
2021/04/27 04:25:34;;;;;;;4.43;3.77;;;6.70;69.80;;;;;;5056275;28;20413;-70
2021/04/27 04:27:59;;;;;;;7.93;5.10;;;6.70;69.10;;;;;;5054991;28;20173;-70
2021/04/27 04:30:25;;;;;;;5.83;4.97;;;6.70;68.70;;;;;;5056365;28;20244;-70
2021/04/27 04:32:52;;;;;;;5.63;4.47;;;6.70;69.70;;;;;;5053583;28;20186;-70
2021/04/27 04:35:21;;;;;;;5.30;4.17;;;6.70;69.60;;;;;;5048041;28;20465;-70
2021/04/27 04:37:47;;;;;;;4.43;3.90;;;6.70;70.00;;;;;;5046238;28;20436;-70
2021/04/27 04:40:14;;;;;;;5.43;4.00;;;6.80;70.60;;;;;;5039465;28;20551;-70
2021/04/27 04:42:40;;;;;;;10.00;5.33;;;6.80;71.10;;;;;;5045765;28;20853;-71
2021/04/27 04:45:08;;;;;;;4.90;4.10;;;6.80;71.70;;;;;;5044984;28;20499;-71
2021/04/27 04:47:34;;;;;;;5.73;4.40;;;6.80;72.20;;;;;;5035707;28;20417;-71
2021/04/27 04:50:00;;;;;;;7.37;4.80;;;6.80;72.40;;;;;;5035671;28;20438;-71
2021/04/27 04:52:26;;;;;;;5.53;4.70;;;6.80;72.70;;;;;;5039771;28;20417;-71
2021/04/27 04:54:51;;;;;;;6.20;4.80;;;6.80;73.10;;;;;;5051098;28;20827;-71
2021/04/27 04:57:17;;;;;;;8.60;5.47;;;6.80;73.30;;;;;;5047666;28;20186;-71
2021/04/27 04:59:43;;;;;;;5.30;4.80;;;6.80;73.40;;;;;;5054880;28;20647;-70
2021/04/27 05:02:08;;;;;;;4.53;4.13;;;6.80;73.20;;;;;;5055397;28;20550;-70
2021/04/27 05:04:34;;;;;;;5.00;4.30;;;6.80;72.20;;;;;;5058517;28;20225;-70
2021/04/27 05:07:05;;;;;;;6.30;4.67;;;6.70;71.20;;;;;;5065947;28;20264;-71
2021/04/27 05:09:31;;;;;;;9.03;5.17;;;6.60;70.60;;;;;;5065653;28;20280;-70
2021/04/27 05:11:57;;;;;;;6.20;4.30;;;6.50;70.90;;;;;;5052620;28;20539;-70
2021/04/27 05:14:23;;;;;;;6.80;4.67;;;6.60;71.40;;;;;;5050620;28;20679;-71
2021/04/27 05:16:49;;;;;;;5.33;4.77;;;6.60;70.80;;;;;;5053615;28;20423;-70
2021/04/27 05:19:15;;;;;;;7.63;5.03;;;6.50;70.40;;;;;;5047669;28;20199;-72
2021/04/27 05:21:40;;;;;;;7.53;4.30;;;6.50;70.90;;;;;;5054125;28;20194;-69
2021/04/27 05:24:07;;;;;;;4.53;4.13;;;6.50;71.20;;;;;;5054272;28;20935;-71
2021/04/27 05:26:33;;;;;;;8.80;4.27;;;6.50;71.30;;;;;;5054378;28;20202;-72
2021/04/27 05:28:59;;;;;;;9.87;4.57;;;6.60;71.20;;;;;;5053029;28;20526;-70
2021/04/27 05:31:24;;;;;;;8.40;4.80;;;6.50;70.70;;;;;;5053912;28;20494;-72
2021/04/27 05:33:50;;;;;;;4.50;4.10;;;6.50;70.70;;;;;;5063754;28;20201;-70
2021/04/27 05:36:16;;;;;;;5.67;4.83;;;6.50;70.40;;;;;;5054835;28;20186;-70
2021/04/27 05:38:42;;;;;;;5.00;4.40;;;6.50;70.80;;;;;;5060361;28;20201;-71
2021/04/27 05:41:08;;;;;;;4.33;3.87;;;6.50;70.50;;;;;;5058472;28;20178;-71
2021/04/27 05:43:34;;;;;;;7.73;4.63;;;6.50;70.00;;;;;;5055548;28;20439;-70
2021/04/27 05:46:00;;;;;;;7.60;4.93;;;6.50;69.40;;;;;;5053743;28;20672;-71
2021/04/27 05:48:25;;;;;;;10.03;5.10;;;6.40;69.70;;;;;;5053695;28;20712;-70
2021/04/27 05:50:51;;;;;;;6.00;5.40;;;6.50;69.50;;;;;;5053281;28;20780;-71
2021/04/27 05:53:19;;;;;;;6.47;4.67;;;6.60;69.80;;;;;;5054657;28;20189;-71
2021/04/27 05:55:45;;;;;;;5.10;3.93;;;6.70;70.00;;;;;;5071106;28;20610;-72
2021/04/27 05:58:11;;;;;;;5.00;4.50;;;6.80;69.60;;;;;;5054424;28;20516;-71
2021/04/27 06:00:37;;;;;;;7.90;4.13;;;6.90;68.90;;;;;;5053566;28;20294;-71
2021/04/27 06:03:04;;;;;;;5.33;4.77;;;7.00;68.90;;;;;;5054295;28;20507;-71
2021/04/27 06:05:30;;;;;;;6.97;4.50;;;7.10;68.70;;;;;;5054777;28;20432;-71
2021/04/27 06:07:56;;;;;;;5.93;3.67;;;7.20;68.00;;;;;;5053256;28;20428;-71
2021/04/27 06:10:21;;;;;;;4.00;3.60;;;7.30;66.30;;;;;;5053007;28;20862;-71
2021/04/27 06:12:47;;;;;;;5.03;3.70;;;7.40;65.70;;;;;;5058814;28;20206;-71
2021/04/27 06:15:13;;;;;;;5.37;3.87;;;7.60;65.40;;;;;;5058250;28;20205;-71
2021/04/27 06:17:38;;;;;;;3.13;2.83;;;7.70;64.80;;;;;;5053256;28;20178;-71
2021/04/27 06:20:07;;;;;;;4.63;3.53;;;7.80;63.30;;;;;;5052119;28;20199;-71
2021/04/27 06:22:33;;;;;;;5.70;3.50;;;7.80;62.50;;;;;;5053039;28;20591;-71
2021/04/27 06:25:00;;;;;;;5.90;3.60;;;8.00;62.50;;;;;;5053969;28;20486;-71
2021/04/27 06:27:28;;;;;;;5.60;3.63;;;8.00;62.50;;;;;;5057009;28;20451;-70
2021/04/27 06:29:55;;;;;;;3.97;3.60;;;8.10;61.20;;;;;;5053303;28;20527;-70
2021/04/27 06:32:23;;;;;;;4.70;3.60;;;8.10;61.40;;;;;;5053606;28;20430;-70
2021/04/27 06:34:49;;;;;;;4.00;3.30;;;8.20;61.50;;;;;;5053769;28;20507;-71
2021/04/27 06:37:15;;;;;;;3.87;3.23;;;8.20;61.10;;;;;;5053851;28;20420;-71
2021/04/27 06:39:41;;;;;;;3.40;3.20;;;8.40;60.50;;;;;;5053027;28;20202;-71
2021/04/27 06:42:08;;;;;;;6.30;3.23;;;8.50;60.20;;;;;;5053452;28;20603;-71
2021/04/27 06:44:34;;;;;;;6.40;3.80;;;8.50;58.90;;;;;;5051630;28;20933;-71
2021/04/27 06:47:00;;;;;;;3.75;3.22;;;8.70;59.90;;;;;;5052813;28;20427;-71
2021/04/27 06:49:25;;;;;;;3.70;3.30;;;8.80;59.70;;;;;;5052364;28;20206;-71
2021/04/27 06:51:51;;;;;;;3.37;3.10;;;8.90;59.20;;;;;;5052719;28;20178;-70
2021/04/27 06:54:18;;;;;;;4.03;3.63;;;9.00;58.40;;;;;;5052368;28;20273;-70
2021/04/27 06:56:44;;;;;;;6.10;3.67;;;9.10;58.10;;;;;;5052938;28;21023;-69
2021/04/27 06:59:12;;;;;;;3.60;3.30;;;9.10;57.00;;;;;;5070663;28;20512;-71
2021/04/27 07:01:38;;;;;;;3.87;3.57;;;9.20;56.40;;;;;;5053461;28;20177;-70
2021/04/27 07:04:03;;;;;;;5.23;3.17;;;9.30;56.80;;;;;;5053444;28;20435;-70
2021/04/27 07:06:29;;;;;;;2.97;2.67;;;9.40;56.60;;;;;;5052858;28;20245;-70
2021/04/27 07:08:54;;;;;;;12.83;3.93;;;9.50;56.00;;;;;;5054320;28;20205;-72
2021/04/27 07:11:20;;;;;;;7.57;3.70;;;9.60;55.00;;;;;;5052879;28;20178;-69
2021/04/27 07:13:45;;;;;;;4.93;2.40;;;9.60;54.80;;;;;;5062249;28;20533;-72
2021/04/27 07:16:11;;;;;;;9.20;3.70;;;9.70;54.60;;;;;;5055078;28;20181;-70
2021/04/27 07:18:37;;;;;;;6.70;3.80;;;9.80;54.40;;;;;;5057664;28;20252;-69
2021/04/27 07:21:04;;;;;;;3.20;3.00;;;9.90;54.20;;;;;;5056299;28;20185;-70
2021/04/27 07:23:30;;;;;;;3.30;2.53;;;10.00;52.90;;;;;;5052061;28;20716;-69
2021/04/27 07:25:56;;;;;;;5.43;2.20;;;9.90;52.20;;;;;;5055629;28;20511;-70
2021/04/27 07:28:21;;;;;;;2.70;2.50;;;10.00;51.50;;;;;;5050891;28;20224;-70
2021/04/27 07:30:47;;;;;;;3.67;2.90;;;10.10;51.50;;;;;;5057685;28;20802;-70
2021/04/27 07:33:12;;;;;;;2.47;2.27;;;10.10;50.80;;;;;;5053937;28;20185;-71
2021/04/27 07:35:38;;;;;;;5.00;3.63;;;10.20;50.90;;;;;;5050764;28;20178;-71
2021/04/27 07:38:04;;;;;;;3.03;2.63;;;10.30;50.90;;;;;;5046785;28;20655;-71
2021/04/27 07:40:32;;;;;;;3.40;2.90;;;10.50;50.80;;;;;;5044784;28;20444;-71
2021/04/27 07:42:58;;;;;;;6.23;2.80;;;10.50;50.50;;;;;;5052370;28;20225;-70
2021/04/27 07:45:24;;;;;;;5.83;2.63;;;10.60;50.20;;;;;;5052486;28;20416;-70
2021/04/27 07:47:52;;;;;;;5.40;2.50;;;10.70;49.60;;;;;;5052387;28;20174;-71
2021/04/27 07:50:18;;;;;;;3.83;2.63;;;10.80;49.20;;;;;;5054275;28;20996;-71
2021/04/27 07:52:43;;;;;;;3.17;2.53;;;10.80;48.80;;;;;;5054787;28;20483;-71
2021/04/27 07:55:11;;;;;;;3.40;2.67;;;10.90;48.60;;;;;;5055517;28;20839;-71
2021/04/27 07:57:36;;;;;;;3.33;2.73;;;10.90;48.60;;;;;;5058030;28;20213;-71
2021/04/27 08:00:04;;;;;;;3.10;2.80;;;11.10;48.60;;;;;;5058705;28;20768;-71
2021/04/27 08:02:29;;;;;;;3.50;2.27;;;11.00;47.90;;;;;;5058762;28;20536;-70
2021/04/27 08:04:55;;;;;;;3.00;2.53;;;11.00;47.70;;;;;;5057465;28;20432;-71
2021/04/27 08:07:20;;;;;;;3.00;2.43;;;11.00;47.60;;;;;;5059880;28;20178;-72
2021/04/27 08:09:46;;;;;;;3.13;2.67;;;11.10;48.50;;;;;;5085274;28;20499;-70
2021/04/27 08:12:12;;;;;;;6.90;2.93;;;11.30;52.40;;;;;;5066386;28;20232;-71
2021/04/27 08:14:37;;;;;;;2.97;2.70;;;11.40;48.80;;;;;;5059262;28;20211;-71
2021/04/27 08:17:22;;;;;;;4.23;2.70;;;11.40;48.10;;;;;;5023837;28;20201;-71
2021/04/27 08:19:49;;;;;;;3.73;2.47;;;11.40;47.20;;;;;;5046342;28;20323;-71
2021/04/27 08:22:15;;;;;;;3.83;2.80;;;11.40;47.30;;;;;;5054644;28;20464;-71
2021/04/27 08:24:44;;;;;;;4.40;2.50;;;11.50;47.40;;;;;;5062299;28;20458;-71
2021/04/27 08:27:15;;;;;;;2.83;2.57;;;11.60;47.20;;;;;;5055643;28;20831;-71
2021/04/27 08:29:41;;;;;;;2.80;2.50;;;11.80;47.10;;;;;;5056968;28;20797;-71
2021/04/27 08:32:07;;;;;;;4.03;2.40;;;11.90;47.20;;;;;;5056713;28;20420;-71
2021/04/27 08:34:33;;;;;;;3.70;2.50;;;12.00;47.00;;;;;;5051054;28;20544;-71
2021/04/27 08:36:59;;;;;;;4.77;2.40;;;12.20;47.20;;;;;;5055424;28;20420;-71
2021/04/27 08:39:25;;;;;;;3.87;2.93;;;12.40;47.20;;;;;;5051459;28;20487;-71
2021/04/27 08:41:51;;;;;;;4.77;3.50;;;12.50;47.00;;;;;;5053556;28;20458;-71
2021/04/27 08:44:17;;;;;;;2.70;2.53;;;12.60;46.30;;;;;;5054187;28;20170;-72
2021/04/27 08:46:43;;;;;;;2.77;2.53;;;12.70;45.60;;;;;;5044084;28;20445;-72
2021/04/27 08:49:09;;;;;;;5.60;3.10;;;12.70;46.00;;;;;;5044110;28;20202;-72
2021/04/27 08:51:34;;;;;;;6.57;3.00;;;12.70;45.50;;;;;;5053783;28;20882;-72
2021/04/27 08:54:02;;;;;;;2.37;2.23;;;12.70;45.80;;;;;;5053041;28;20205;-71
2021/04/27 08:56:29;;;;;;;5.53;3.10;;;12.70;45.60;;;;;;5054999;28;20431;-71
2021/04/27 08:58:55;;;;;;;4.17;3.10;;;12.90;45.70;;;;;;5055159;28;20444;-72
2021/04/27 09:01:20;;;;;;;4.40;3.00;;;13.00;45.20;;;;;;5055471;28;20442;-72
2021/04/27 09:03:54;;;;;;;2.90;2.70;;;13.10;45.00;;;;;;5055168;28;20174;-71
2021/04/27 09:06:22;;;;;;;3.10;2.50;;;13.20;44.10;;;;;;5054928;28;20663;-70
2021/04/27 09:08:49;;;;;;;4.43;3.30;;;13.30;44.40;;;;;;5055066;28;20425;-72
2021/04/27 09:11:33;;;;;;;3.80;3.43;;;13.20;43.50;;;;;;5056055;28;20488;-72
2021/04/27 09:14:10;;;;;;;2.90;2.70;;;13.20;43.50;;;;;;5071287;28;20447;-71
2021/04/27 09:16:37;;;;;;;3.60;3.30;;;13.10;43.20;;;;;;5067946;28;20499;-71
2021/04/27 09:19:04;;;;;;;3.20;3.00;;;13.20;43.60;;;;;;5056395;28;20478;-71
2021/04/27 09:21:38;;;;;;;4.57;2.70;;;13.20;44.10;;;;;;5055941;28;20878;-71
2021/04/27 09:24:17;;;;;;;3.50;2.87;;;13.00;44.20;;;;;;5057213;28;20486;-71
2021/04/27 09:26:51;;;;;;;3.57;3.27;;;13.00;43.70;;;;;;5057481;28;20416;-71
2021/04/27 09:29:33;;;;;;;4.33;3.57;;;13.00;42.60;;;;;;5053815;28;20515;-71
2021/04/27 09:31:59;;;;;;;4.03;3.03;;;13.30;43.80;;;;;;5055767;28;20424;-71
2021/04/27 09:34:34;;;;;;;3.97;2.57;;;13.40;43.60;;;;;;5073925;28;20458;-71
2021/04/27 09:37:03;;;;;;;2.80;2.60;;;13.50;43.80;;;;;;5075287;28;20402;-71
2021/04/27 09:39:37;;;;;;;3.50;3.00;;;13.60;43.20;;;;;;5075110;28;20928;-72
2021/04/27 09:42:16;;;;;;;3.67;2.70;;;13.60;42.70;;;;;;5074872;28;20400;-72
2021/04/27 09:44:44;;;;;;;5.17;3.27;;;13.70;43.10;;;;;;5068205;28;20424;-71
2021/04/27 09:47:18;;;;;;;3.20;2.80;;;14.00;43.70;;;;;;5054988;28;20902;-71
2021/04/27 09:50:11;;;;;;;4.37;3.00;;;14.20;45.50;;;;;;5054808;28;20839;-71
2021/04/27 09:52:44;;;;;;;4.50;3.17;;;14.10;42.50;;;;;;5054579;28;20420;-72
2021/04/27 09:55:20;;;;;;;3.73;2.90;;;14.10;42.20;;;;;;5055684;28;20452;-72
2021/04/27 09:57:54;;;;;;;4.70;3.60;;;14.20;42.30;;;;;;5054435;28;20492;-70
2021/04/27 10:00:20;;;;;;;3.93;2.70;;;14.30;42.70;;;;;;5054348;28;20825;-71
2021/04/27 10:02:46;;;;;;;6.40;3.10;;;14.40;42.00;;;;;;5054011;28;20443;-70
2021/04/27 10:05:12;;;;;;;4.20;3.00;;;14.50;42.00;;;;;;5055549;28;20452;-70
2021/04/27 10:07:39;;;;;;;4.93;3.13;;;14.60;42.30;;;;;;5052414;28;20185;-72
2021/04/27 10:10:08;;;;;;;3.53;3.23;;;14.60;41.80;;;;;;5053696;28;20440;-72
2021/04/27 10:12:34;;;;;;;5.43;2.97;;;14.60;41.30;;;;;;5034090;28;20808;-71
2021/04/27 10:15:01;;;;;;;5.13;4.00;;;14.50;39.90;;;;;;5039770;28;20443;-72
2021/04/27 10:17:27;;;;;;;3.00;2.80;;;14.40;39.80;;;;;;5052754;28;20439;-71
2021/04/27 10:19:53;;;;;;;3.90;3.27;;;14.40;40.20;;;;;;5054295;28;20914;-71
2021/04/27 10:22:19;;;;;;;4.43;3.87;;;14.60;40.30;;;;;;5054378;28;20440;-71
2021/04/27 10:24:46;;;;;;;6.83;3.10;;;14.70;40.80;;;;;;5053720;28;20443;-71
2021/04/27 10:27:12;;;;;;;3.60;3.00;;;14.60;40.30;;;;;;5054506;28;20181;-71
2021/04/27 10:29:37;;;;;;;5.00;3.30;;;14.50;39.90;;;;;;5050643;28;20427;-71
2021/04/27 10:32:15;;;;;;;2.90;2.70;;;14.50;39.90;;;;;;5054766;28;20424;-71
2021/04/27 10:34:59;;;;;;;5.93;2.90;;;14.60;40.10;;;;;;5055602;28;20658;-70
2021/04/27 10:37:51;;;;;;;6.70;3.67;;;14.70;40.00;;;;;;5066101;28;20481;-72
2021/04/27 10:40:38;;;;;;;4.70;3.37;;;14.80;40.30;;;;;;5073230;28;20435;-72
2021/04/27 10:43:25;;;;;;;4.70;3.17;;;14.90;39.70;;;;;;5073276;28;20435;-71
2021/04/27 10:46:20;;;;;;;4.27;3.50;;;14.80;39.50;;;;;;5062281;28;20396;-71
2021/04/27 10:48:47;;;;;;;3.13;2.83;;;14.80;39.50;;;;;;5083842;28;20444;-71
2021/04/27 10:51:23;;;;;;;3.23;2.93;;;14.90;39.50;;;;;;5053501;28;20451;-72
2021/04/27 10:54:15;;;;;;;8.70;4.10;;;15.00;39.40;;;;;;5053173;28;20448;-72
2021/04/27 10:56:43;;;;;;;14.93;3.40;;;15.10;39.30;;;;;;5051383;28;20548;-73
2021/04/27 10:59:12;;;;;;;5.93;2.83;;;15.00;38.60;;;;;;5054344;28;20440;-72
2021/04/27 11:01:40;;;;;;;2.70;2.50;;;15.00;38.60;;;;;;5052989;28;20435;-71
2021/04/27 11:04:08;;;;;;;3.77;3.47;;;15.00;38.80;;;;;;5053387;28;20444;-71
2021/04/27 11:06:33;;;;;;;6.40;3.30;;;14.80;38.00;;;;;;5053263;28;20461;-71
2021/04/27 11:09:26;;;;;;;3.23;2.77;;;14.90;38.80;;;;;;5054036;28;20444;-71
2021/04/27 11:11:51;;;;;;;6.90;3.97;;;14.90;38.00;;;;;;5051884;28;20216;-71
2021/04/27 11:14:23;;;;;;;5.33;3.30;;;14.70;38.10;;;;;;5071908;28;20451;-72
2021/04/27 11:16:56;;;;;;;3.23;3.03;;;14.80;38.50;;;;;;5071472;28;20181;-71
2021/04/27 11:19:26;;;;;;;5.30;2.90;;;14.70;38.80;;;;;;5072207;28;20845;-71
2021/04/27 11:22:25;;;;;;;3.00;2.80;;;14.90;39.20;;;;;;5074039;28;20457;-71
2021/04/27 11:24:52;;;;;;;3.30;3.00;;;14.90;39.00;;;;;;5073165;28;20412;-71
2021/04/27 11:27:22;;;;;;;3.70;3.37;;;14.80;37.90;;;;;;5074366;28;20440;-71
2021/04/27 11:30:00;;;;;;;2.97;2.60;;;14.90;38.70;;;;;;5069605;28;20452;-72
2021/04/27 11:32:27;;;;;;;4.93;2.90;;;15.00;38.80;;;;;;5057830;28;20903;-71
2021/04/27 11:34:57;;;;;;;4.10;3.13;;;14.90;38.30;;;;;;5055925;28;20472;-72
2021/04/27 11:37:31;;;;;;;3.13;2.93;;;14.80;38.50;;;;;;5057531;28;20495;-72
2021/04/27 11:39:59;;;;;;;4.33;3.17;;;14.80;38.70;;;;;;5058917;28;20374;-70
2021/04/27 11:42:32;;;;;;;3.53;3.10;;;14.80;38.90;;;;;;5065397;28;21285;-73
2021/04/27 11:45:01;;;;;;;6.57;3.30;;;14.70;38.20;;;;;;5089133;28;20435;-72
2021/04/27 11:47:33;;;;;;;2.97;2.77;;;14.60;38.30;;;;;;5082419;28;20436;-72
2021/04/27 11:50:02;;;;;;;4.60;3.37;;;14.60;38.40;;;;;;5075315;28;20475;-72
2021/04/27 11:52:39;;;;;;;4.20;3.60;;;14.70;37.90;;;;;;5075440;28;20423;-71
2021/04/27 11:55:20;;;;;;;4.20;3.17;;;14.80;37.70;;;;;;5077273;28;20450;-72
2021/04/27 11:57:50;;;;;;;6.13;3.53;;;14.70;38.20;;;;;;5076336;28;20962;-71
2021/04/27 12:00:16;;;;;;;3.10;2.80;;;14.70;38.40;;;;;;5076559;28;20420;-71
2021/04/27 12:02:41;;;;;;;3.00;2.67;;;14.70;38.10;;;;;;5075142;28;20442;-71
2021/04/27 12:05:08;;;;;;;3.37;2.90;;;14.70;38.10;;;;;;5076082;28;20494;-70
2021/04/27 12:07:34;;;;;;;3.20;3.00;;;14.60;37.10;;;;;;5076092;28;20243;-70
2021/04/27 12:10:00;;;;;;;4.10;3.10;;;14.50;37.70;;;;;;5076041;28;20431;-71
2021/04/27 12:12:27;;;;;;;3.20;2.67;;;14.60;38.20;;;;;;5074286;28;20211;-71
2021/04/27 12:14:58;;;;;;;4.93;2.87;;;14.60;38.00;;;;;;5075889;28;20451;-71
2021/04/27 12:17:25;;;;;;;4.33;3.20;;;14.60;38.70;;;;;;5075814;28;20447;-71
2021/04/27 12:20:02;;;;;;;4.00;3.40;;;14.60;38.10;;;;;;5075533;28;20919;-71
2021/04/27 12:22:28;;;;;;;6.17;3.77;;;14.70;37.90;;;;;;5075277;28;20411;-71
2021/04/27 12:24:54;;;;;;;2.90;2.70;;;14.70;37.80;;;;;;5055888;28;20432;-70
2021/04/27 12:27:21;;;;;;;3.70;3.40;;;14.60;37.80;;;;;;5055421;28;20558;-70
2021/04/27 12:30:18;;;;;;;3.30;3.00;;;14.70;37.90;;;;;;5055943;28;20214;-71
2021/04/27 12:32:48;;;;;;;3.90;3.50;;;14.70;37.80;;;;;;5056470;28;20487;-71
2021/04/27 12:35:22;;;;;;;3.57;3.10;;;14.70;37.80;;;;;;5057208;28;20467;-70
2021/04/27 12:38:11;;;;;;;3.80;3.40;;;14.70;38.10;;;;;;5055746;28;20412;-71
2021/04/27 12:41:05;;;;;;;5.57;3.37;;;14.70;37.50;;;;;;5055722;28;20448;-71
2021/04/27 12:43:32;;;;;;;3.50;3.13;;;14.70;36.30;;;;;;5055899;28;20432;-72
2021/04/27 12:46:00;;;;;;;5.80;3.30;;;14.70;36.70;;;;;;5057011;28;20424;-72
2021/04/27 12:48:29;;;;;;;2.87;2.67;;;14.70;36.70;;;;;;5055738;28;20500;-71
2021/04/27 12:50:58;;;;;;;4.13;3.43;;;14.70;36.50;;;;;;5056044;28;20413;-71
2021/04/27 12:53:43;;;;;;;5.37;3.27;;;14.80;36.40;;;;;;5055847;28;20496;-72
2021/04/27 12:56:14;;;;;;;4.77;3.13;;;14.80;36.70;;;;;;5069909;28;20431;-72
2021/04/27 12:58:40;;;;;;;4.00;3.10;;;14.80;36.70;;;;;;5074437;28;20410;-72